Cle Elum, WA (98922)

2:24 PM PDT on August 27, 2014 (GMT -0700)
Cle Elum-Roslyn High School | Change Station
CLOSE
Current Station
Personal Weather Station
Location: Cle Elum, WA
Elevation: 2107 ft
Nearby Weather Stations

Elev 2107 ft 47.20 °N, 120.97 °W | Updated 20 seconds ago

Clear
Clear
84.9 °F
Feels Like 83 °F
N
7.0
Wind Variable Wind from NNW

Today
High -- | Low -- °F
--% Chance of Precip.
Yesterday
High -- | Low -- °F
Precip. -- in
6:16 AM 7:53 PM
Waxing Crescent, 5% visible
Pressure 29.93 in
Visibility 10.0 miles
Clouds Clear
Heat Index 83 °F
Dew Point 54 °F
Humidity 35%
Rainfall 0.00 in
Snow Depth Not available.
UV 4.9 out of 12
Pollen 4.80 out of 12
Air Quality Not available.
Flu Activity Not available.
METAR KELN 272053Z AUTO VRB04KT 10SM CLR 34/12 A2997 RMK AO2 SLP134 60000 T03390122 56017

More Conditions Fewer Conditions

Pressure 29.93 in
Visibility 10.0 miles
Clouds Clear
Heat Index 83 °F
Dew Point 54 °F
Humidity 35%
Rainfall 0.00 in
Snow Depth Not available.
UV 4.9 out of 12
Pollen 4.80 out of 12
Air Quality Not available.
Flu Activity Not available.
METAR KELN 272053Z AUTO VRB04KT 10SM CLR 34/12 A2997 RMK AO2 SLP134 60000 T03390122 56017

More Conditions Fewer Conditions

10-Day Weather Forecast

Almanac

Astronomy

Aug. 27, 2014 Rise Set
Actual Time 6:16 AM PDT 7:53 PM PDT
Civil Twilight 5:44 AM PDT 8:25 PM PDT
Nautical Twilight 5:05 AM PDT 9:04 PM PDT
Astronomical Twilight 4:22 AM PDT 9:46 PM PDT
Moon 8:28 AM PDT 8:35 PM PDT
Length of Visible Light 14h 40m
Length of Day
13h 36m
Tomorrow will be 3m 14s shorter.
Waxing Crescent, 5% of the Moon is Illuminated
Today
Waxing Crescent
Sep 2
First Quarter
Sep 8
Full
Sep 15
Last Quarter
Sep 24
New

Today's Extremes

State Highs State Lows

Community

WunderPhotos

Upload Photos

1,747,791 photos uploaded!

Nearby

Snow Depth

Station Depth Elevation
Grouse Camp 1 in 5380 ft
Trough 0 in 5300 ft
Surprise Lakes 0 in 4250 ft
Thunder Basin 1 in 4200 ft
Rainy Pass 0 in 4780 ft

Earthquake Activity

City Distance Mag. Time & Date
No recent earthquake activity has been reported nearby.
Minimum magnitude displayed is 2.5.

Coastal Water Temperatures

Place Temperature
No Stations Reporting

Nearby Weather Stations